Impacts METAR Board
IDs:

KBOS - Boston/Logan Intl, MA, US

Updated at: 1900 UTC 23 Jun 2018
Potential Impact None Slight Moderate High
Time 23/07Z 23/08Z 23/09Z 23/10Z 23/11Z 23/12Z 23/13Z 23/14Z 23/15Z 23/16Z 23/17Z 23/18Z 23/19Z
Temp61 61 62 63 63 63 64 64 63 63 64 63 60
Dewpt51 51 48 53 56 56 55 55 57 57 56 57 55
Altim30.04 30.03 30.02 30.01 30.01 30.00 29.99 29.99 29.97 29.96 29.94 29.92 29.90
VIS10 10 10 10 10 10 10 10 10 10 10 8 3
CIG210 210 210 210 100 100 90 70 70 70 28 23 12
CoverBKNBKNBKNBKNBKNOVCOVCOVCOVCOVCOVCOVCOVC
FltCatVFRVFRVFRVFRVFRVFRVFRVFRVFRVFRMVFRMVFRMVFR
WX-----------------------RA-DZ
WDir80705060607060909070707070
WSpd4 3 5 7 6 10 7 12 12 12 8 10 11
WGst-- -- -- -- -- -- -- -- -- -- -- -- --
Raw hourly METARs
KBOS 230654Z 08004KT 10SM BKN210 16/11 A3004 RMK AO2 SLP171 T01610106
KBOS 230754Z 07003KT 10SM BKN210 16/11 A3003 RMK AO2 SLP169 T01610106
KBOS 230854Z COR 05005KT 10SM BKN210 17/09 A3002 RMK AO2 SLP163 T01670089 57014
KBOS 230954Z 06007KT 10SM BKN210 17/12 A3001 RMK AO2 SLP161 T01720117
KBOS 231054Z 06006KT 10SM FEW070 BKN100 BKN220 17/13 A3001 RMK AO2 SLP163 T01720133
KBOS 231154Z 07010KT 10SM FEW070 BKN100 OVC180 17/13 A3000 RMK AO2 RAB19E41 SLP157 P0000 60000 T01720133 10178 20161 58006
KBOS 231254Z 06007KT 10SM FEW060 BKN090 OVC180 18/13 A2999 RMK AO2 SLP155 T01780128
KBOS 231354Z 09012KT 10SM BKN070 BKN110 OVC180 18/13 A2999 RMK AO2 RAB37E46 SLP154 P0000 T01780128
KBOS 231454Z 09012KT 10SM SCT049 BKN070 OVC150 17/14 A2997 RMK AO2 SLP149 60000 T01720139 58008
KBOS 231554Z 07012KT 10SM FEW025 SCT040 BKN070 OVC140 17/14 A2996 RMK AO2 SLP143 T01720139
KBOS 231654Z 07008KT 10SM FEW012 BKN028 OVC070 18/13 A2994 RMK AO2 SLP138 T01780133
KBOS 231754Z 07010KT 8SM -RA FEW008 SCT013 OVC023 17/14 A2992 RMK AO2 SLP132 DZB20E35RAB35 P0000 60000 T01720139 10183 20167 58017
KBOS 231854Z 07011KT 3SM -DZ OVC012 16/13 A2990 RMK AO2 RAE1755DZB47 SLP125 P0000 T01560128



Page loaded:  19:29 UTC  |   12:29 PM Pacific  |   01:29 PM Mountain  |   02:29 PM Central  |   03:29 PM Eastern

 

ADVISORIES

FORECASTS

FORECASTS

OBSERVATIONS

USER TOOLS

ABOUT US